Time;durP1;ratioP1;P1;durP2;ratioP2;P2;SDS_P1;SDS_P2;PMS_P1;PMS_P2;Temp;Humidity;BMP_temperature;BMP_pressure;BME280_temperature;BME280_humidity;BME280_pressure;Samples;Min_cycle;Max_cycle;Signal;HPM_P1;HPM_P2
2021/11/21 00:00:31;;;;;;;109.20;47.60;;;;;;;5.92;100.00;101433.91;5124607;27;20085;-71
2021/11/21 00:02:58;;;;;;;115.30;48.45;;;;;;;5.92;100.00;101434.78;5125470;27;20028;-73
2021/11/21 00:05:24;;;;;;;111.53;47.90;;;;;;;5.94;100.00;101425.25;5105326;27;20047;-76
2021/11/21 00:07:49;;;;;;;112.65;47.95;;;;;;;5.93;100.00;101431.34;5107428;27;20027;-74
2021/11/21 00:10:14;;;;;;;112.38;47.15;;;;;;;5.94;100.00;101429.59;5118844;27;20026;-74
2021/11/21 00:12:40;;;;;;;113.22;48.60;;;;;;;5.93;100.00;101410.34;5125506;27;20052;-73
2021/11/21 00:15:06;;;;;;;106.03;46.88;;;;;;;5.99;100.00;101408.81;5124224;27;20023;-69
2021/11/21 00:17:32;;;;;;;104.57;44.03;;;;;;;5.99;100.00;101408.81;5124289;27;20039;-72
2021/11/21 00:19:57;;;;;;;109.43;45.83;;;;;;;5.96;100.00;101403.44;5124935;27;20019;-68
2021/11/21 00:22:24;;;;;;;103.38;45.22;;;;;;;5.96;100.00;101400.81;5123110;27;20020;-68
2021/11/21 00:24:50;;;;;;;109.30;46.03;;;;;;;5.96;100.00;101406.94;5125920;27;20066;-70
2021/11/21 00:27:15;;;;;;;107.28;47.22;;;;;;;5.98;100.00;101396.50;5122443;27;20051;-72
2021/11/21 00:29:41;;;;;;;110.82;47.67;;;;;;;5.96;100.00;101387.69;5125356;27;20112;-74
2021/11/21 00:32:06;;;;;;;106.25;45.15;;;;;;;5.95;100.00;101386.78;5123230;27;20019;-68
2021/11/21 00:34:32;;;;;;;115.72;47.67;;;;;;;5.94;100.00;101388.50;5124202;27;20036;-70
2021/11/21 00:36:57;;;;;;;110.65;45.38;;;;;;;5.95;100.00;101381.53;5124627;27;20022;-68
2021/11/21 00:39:23;;;;;;;107.80;44.67;;;;;;;5.94;100.00;101384.97;5122576;27;20034;-70
2021/11/21 00:41:48;;;;;;;99.47;41.50;;;;;;;5.97;100.00;101377.25;5125746;27;20091;-70
2021/11/21 00:44:14;;;;;;;103.55;43.72;;;;;;;5.98;100.00;101375.53;5122068;27;20080;-71
2021/11/21 00:46:39;;;;;;;104.53;43.10;;;;;;;5.97;100.00;101378.94;5124859;27;20572;-70
2021/11/21 00:49:11;;;;;;;103.15;43.80;;;;;;;5.97;100.00;101381.56;5123634;27;20499;-69
2021/11/21 00:51:37;;;;;;;97.22;41.85;;;;;;;5.98;100.00;101372.91;5124771;27;20067;-70
2021/11/21 00:54:10;;;;;;;95.82;40.63;;;;;;;5.98;100.00;101372.91;5123757;27;20094;-68
2021/11/21 00:56:35;;;;;;;92.07;40.88;;;;;;;5.97;100.00;101368.44;5124070;27;20023;-69
2021/11/21 00:59:00;;;;;;;89.28;39.17;;;;;;;5.96;100.00;101367.56;5124020;27;20110;-70
2021/11/21 01:01:26;;;;;;;92.15;40.55;;;;;;;5.96;100.00;101359.69;5122604;27;20039;-73
2021/11/21 01:03:56;;;;;;;89.07;38.90;;;;;;;6.00;100.00;101358.06;5125891;27;20030;-69
2021/11/21 01:06:21;;;;;;;86.95;38.90;;;;;;;5.98;100.00;101346.66;5122307;27;20035;-68
2021/11/21 01:08:47;;;;;;;93.90;41.05;;;;;;;5.98;100.00;101355.41;5125256;27;20031;-69
2021/11/21 01:11:12;;;;;;;92.18;39.22;;;;;;;5.97;100.00;101351.03;5122348;27;20023;-73
2021/11/21 01:13:38;;;;;;;92.97;39.03;;;;;;;5.96;100.00;101350.94;5124156;27;20436;-75
2021/11/21 01:16:03;;;;;;;89.05;38.20;;;;;;;6.00;100.00;101358.06;5123656;27;20462;-70
2021/11/21 01:18:30;;;;;;;92.45;39.80;;;;;;;5.96;100.00;101357.06;5130135;27;20037;-78
2021/11/21 01:20:56;;;;;;;92.72;38.13;;;;;;;5.97;100.00;101355.31;5132538;27;20489;-78
2021/11/21 01:23:22;;;;;;;87.95;37.75;;;;;;;5.97;100.00;101352.69;5121915;27;20028;-78
2021/11/21 01:25:47;;;;;;;89.18;37.10;;;;;;;5.98;100.00;101359.78;5125333;27;20026;-78
2021/11/21 01:28:14;;;;;;;93.93;38.10;;;;;;;5.98;100.00;101362.41;5121764;28;20513;-78
2021/11/21 01:30:41;;;;;;;96.95;37.97;;;;;;;5.97;100.00;101353.66;5124219;28;20403;-78
2021/11/21 01:33:06;;;;;;;92.90;39.65;;;;;;;5.96;100.00;101350.94;5123014;28;20035;-79
2021/11/21 01:35:32;;;;;;;98.38;38.42;;;;;;;5.97;100.00;101347.44;5123082;28;20027;-79
2021/11/21 01:37:59;;;;;;;89.55;38.15;;;;;;;5.97;100.00;101342.19;5124287;28;20076;-79
2021/11/21 01:40:25;;;;;;;93.82;38.40;;;;;;;5.98;100.00;101341.41;5122139;28;20097;-78
2021/11/21 01:42:52;;;;;;;93.07;39.03;;;;;;;5.98;100.00;101328.28;5124713;28;20027;-77
2021/11/21 01:45:18;;;;;;;92.25;37.13;;;;;;;6.00;100.00;101318.69;5124297;27;20063;-78
2021/11/21 01:47:46;;;;;;;92.03;36.95;;;;;;;6.00;100.00;101322.25;5129044;27;20421;-76
2021/11/21 01:50:16;;;;;;;97.60;39.83;;;;;;;6.00;100.00;101316.06;5126173;27;20035;-79
2021/11/21 01:52:42;;;;;;;87.00;35.75;;;;;;;6.00;100.00;101310.81;5128431;27;20038;-78
2021/11/21 01:55:07;;;;;;;86.88;37.50;;;;;;;6.00;100.00;101316.06;5126791;27;20478;-78
2021/11/21 01:57:33;;;;;;;89.60;37.22;;;;;;;6.01;100.00;101317.88;5127517;27;20047;-78
2021/11/21 02:00:03;;;;;;;93.68;37.58;;;;;;;6.00;100.00;101316.06;5127478;27;20051;-75
2021/11/21 02:02:29;;;;;;;88.88;36.55;;;;;;;6.01;100.00;101310.88;5126680;27;20110;-75
2021/11/21 02:04:55;;;;;;;91.05;37.85;;;;;;;6.02;100.00;101314.41;5128300;27;20033;-77
2021/11/21 02:07:20;;;;;;;89.80;36.15;;;;;;;6.01;100.00;101302.13;5125280;27;20474;-75
2021/11/21 02:09:46;;;;;;;94.80;39.30;;;;;;;6.01;100.00;101296.88;5129053;27;20038;-74
2021/11/21 02:12:11;;;;;;;93.47;38.03;;;;;;;6.03;100.00;101297.78;5126012;27;20367;-74
2021/11/21 02:14:37;;;;;;;89.38;38.30;;;;;;;6.02;100.00;101293.41;5127367;27;20020;-75
2021/11/21 02:17:02;;;;;;;91.57;36.83;;;;;;;6.04;100.00;101294.34;5127311;27;20106;-69
2021/11/21 02:19:28;;;;;;;92.32;38.63;;;;;;;6.04;100.00;101294.34;5125754;27;20134;-70
2021/11/21 02:21:53;;;;;;;89.03;37.97;;;;;;;6.05;100.00;101290.88;5128143;27;20031;-69
2021/11/21 02:24:18;;;;;;;91.05;38.90;;;;;;;6.06;100.00;101287.41;5125391;27;20027;-68
2021/11/21 02:26:44;;;;;;;92.88;38.75;;;;;;;6.06;100.00;101280.41;5128029;27;20466;-68
2021/11/21 02:29:11;;;;;;;94.95;38.67;;;;;;;6.08;100.00;101264.72;5125693;27;20035;-71
2021/11/21 02:31:36;;;;;;;85.82;35.97;;;;;;;6.10;100.00;101257.75;5127248;27;20028;-76
2021/11/21 02:34:02;;;;;;;92.20;38.50;;;;;;;6.09;100.00;101259.50;5126733;27;20030;-72
2021/11/21 02:36:28;;;;;;;93.97;39.47;;;;;;;6.09;100.00;101245.50;5125712;27;20035;-72
2021/11/21 02:38:54;;;;;;;87.78;36.17;;;;;;;6.13;100.00;101259.59;5127966;27;20015;-68
2021/11/21 02:41:20;;;;;;;88.75;37.47;;;;;;;6.12;100.00;101258.72;5124569;27;20026;-69
2021/11/21 02:43:46;;;;;;;90.22;39.67;;;;;;;6.10;100.00;101252.50;5128001;27;20161;-69
2021/11/21 02:46:12;;;;;;;94.57;39.67;;;;;;;6.10;100.00;101245.53;5125055;27;20105;-77
2021/11/21 02:48:38;;;;;;;92.28;39.42;;;;;;;6.12;100.00;101245.59;5126676;27;20110;-71
2021/11/21 02:51:06;;;;;;;98.65;40.08;;;;;;;6.13;100.00;101243.84;5126413;27;20102;-73
2021/11/21 02:53:33;;;;;;;98.22;40.25;;;;;;;6.13;100.00;101234.25;5125991;27;20351;-69
2021/11/21 02:56:03;;;;;;;98.85;39.33;;;;;;;6.15;100.00;101236.91;5126555;27;20023;-77
2021/11/21 02:58:32;;;;;;;102.97;39.88;;;;;;;6.15;100.00;101229.03;5125304;27;20363;-73
2021/11/21 03:00:58;;;;;;;95.68;39.30;;;;;;;6.17;100.00;101229.97;5126950;27;20046;-72
2021/11/21 03:03:24;;;;;;;95.38;38.30;;;;;;;6.18;100.00;101226.50;5124495;27;20351;-74
2021/11/21 03:05:49;;;;;;;98.82;39.35;;;;;;;6.19;100.00;101229.16;5127696;27;20093;-74
2021/11/21 03:08:14;;;;;;;100.90;39.95;;;;;;;6.20;100.00;101220.44;5105768;27;20032;-75
2021/11/21 03:10:40;;;;;;;101.97;40.03;;;;;;;6.20;100.00;101220.44;5107486;27;20035;-70
2021/11/21 03:13:06;;;;;;;102.47;38.80;;;;;;;6.23;100.00;101215.28;5125738;27;20023;-75
2021/11/21 03:15:33;;;;;;;104.28;40.42;;;;;;;6.22;100.00;101213.50;5125234;27;20017;-72
2021/11/21 03:17:59;;;;;;;105.15;41.70;;;;;;;6.24;100.00;101206.53;5126637;27;20054;-73
2021/11/21 03:20:28;;;;;;;98.32;38.70;;;;;;;6.24;100.00;101200.41;5124399;27;20073;-69
2021/11/21 03:22:55;;;;;;;105.50;41.55;;;;;;;6.24;100.00;101188.16;5127392;27;20408;-68
2021/11/21 03:25:21;;;;;;;105.18;41.58;;;;;;;6.22;100.00;101192.50;5123743;27;20386;-77
2021/11/21 03:27:47;;;;;;;104.47;41.40;;;;;;;6.25;100.00;101197.81;5127313;27;20022;-74
2021/11/21 03:30:17;;;;;;;106.45;42.05;;;;;;;6.23;100.00;101191.66;5123923;27;20038;-74
2021/11/21 03:32:44;;;;;;;107.93;41.67;;;;;;;6.26;100.00;101198.72;5126460;27;20465;-76
2021/11/21 03:35:10;;;;;;;112.05;42.70;;;;;;;6.26;100.00;101196.06;5124970;27;20072;-68
2021/11/21 03:37:36;;;;;;;109.75;42.72;;;;;;;6.26;100.00;101199.63;5125671;27;20022;-75
2021/11/21 03:40:04;;;;;;;118.40;43.95;;;;;;;6.26;100.00;101196.06;5125513;27;20031;-76
2021/11/21 03:42:30;;;;;;;113.53;42.65;;;;;;;6.29;100.00;101193.53;5124319;27;20089;-69
2021/11/21 03:44:55;;;;;;;119.30;44.65;;;;;;;6.29;100.00;101193.53;5126639;27;20068;-75
2021/11/21 03:47:21;;;;;;;116.10;43.25;;;;;;;6.30;100.00;101187.44;5123702;27;20024;-74
2021/11/21 03:49:46;;;;;;;116.30;43.17;;;;;;;6.30;100.00;101176.94;5127129;27;20031;-74
2021/11/21 03:52:12;;;;;;;116.30;42.40;;;;;;;6.30;100.00;101169.06;5123865;27;20073;-74
2021/11/21 03:54:37;;;;;;;115.18;42.60;;;;;;;6.33;100.00;101168.25;5125541;27;20019;-74
2021/11/21 03:57:03;;;;;;;112.93;41.63;;;;;;;6.33;100.00;101163.88;5125329;27;20023;-72
2021/11/21 03:59:29;;;;;;;117.55;44.85;;;;;;;6.35;100.00;101169.19;5123667;27;20070;-74
2021/11/21 04:01:55;;;;;;;123.13;45.92;;;;;;;6.34;100.00;101157.81;5126576;27;20470;-74
2021/11/21 04:04:21;;;;;;;120.40;45.17;;;;;;;6.35;100.00;101161.31;5123284;27;20023;-74
2021/11/21 04:06:47;;;;;;;123.18;45.13;;;;;;;6.36;100.00;101157.84;5125760;27;20083;-74
2021/11/21 04:09:13;;;;;;;120.60;43.55;;;;;;;6.37;100.00;101163.13;5123423;27;20035;-74
2021/11/21 04:11:38;;;;;;;122.63;45.42;;;;;;;6.37;100.00;101164.88;5125580;27;20031;-74
2021/11/21 04:14:04;;;;;;;121.70;45.88;;;;;;;6.37;100.00;101157.00;5125282;27;20047;-74
2021/11/21 04:16:29;;;;;;;121.13;43.38;;;;;;;6.39;100.00;101150.03;5124420;27;20507;-74
2021/11/21 04:18:55;;;;;;;122.60;44.72;;;;;;;6.38;100.00;101145.66;5126784;27;20370;-72
2021/11/21 04:21:20;;;;;;;121.28;43.75;;;;;;;6.39;100.00;101148.31;5123576;27;20024;-74
2021/11/21 04:23:46;;;;;;;125.78;44.65;;;;;;;6.39;100.00;101143.06;5126634;27;20363;-72
2021/11/21 04:26:12;;;;;;;125.45;45.20;;;;;;;6.39;100.00;101150.94;5124892;27;20118;-77
2021/11/21 04:28:37;;;;;;;125.00;44.58;;;;;;;6.40;100.00;101142.19;5142076;27;20016;-69
2021/11/21 04:31:04;;;;;;;125.82;45.42;;;;;;;6.40;100.00;101142.19;5145164;27;20046;-73
2021/11/21 04:33:29;;;;;;;131.00;46.83;;;;;;;6.41;100.00;101145.75;5145025;27;20023;-73
2021/11/21 04:35:55;;;;;;;127.88;46.15;;;;;;;6.42;100.00;101147.50;5146846;27;20107;-77
2021/11/21 04:38:23;;;;;;;125.07;46.35;;;;;;;6.44;100.00;101143.19;5143349;27;20054;-72
2021/11/21 04:40:51;;;;;;;116.95;43.08;;;;;;;6.44;100.00;101145.81;5139475;27;20024;-71
2021/11/21 04:43:16;;;;;;;125.63;44.80;;;;;;;6.43;100.00;101133.53;5146595;27;20031;-78
2021/11/21 04:45:42;;;;;;;130.63;46.75;;;;;;;6.45;100.00;101131.81;5136736;27;20079;-74
2021/11/21 04:48:07;;;;;;;128.35;45.72;;;;;;;6.46;100.00;101130.97;5126084;27;20023;-71
2021/11/21 04:50:33;;;;;;;129.63;46.22;;;;;;;6.45;100.00;101126.56;5142103;27;20011;-75
2021/11/21 04:52:58;;;;;;;127.07;47.20;;;;;;;6.49;100.00;101117.03;5132151;27;20082;-73
2021/11/21 04:55:24;;;;;;;129.07;45.70;;;;;;;6.48;100.00;101113.53;5125991;27;20029;-74
2021/11/21 04:57:49;;;;;;;125.35;45.42;;;;;;;6.50;100.00;101108.31;5122377;27;20118;-75
2021/11/21 05:00:17;;;;;;;121.05;43.75;;;;;;;6.54;100.00;101116.31;5124966;27;20393;-72
2021/11/21 05:02:48;;;;;;;117.53;42.50;;;;;;;6.55;100.00;101114.56;5122953;27;20027;-70
2021/11/21 05:05:15;;;;;;;127.63;46.78;;;;;;;6.52;100.00;101107.47;5126323;27;20430;-74
2021/11/21 05:07:41;;;;;;;125.55;46.25;;;;;;;6.54;100.00;101111.06;5124496;27;20388;-76
2021/11/21 05:10:07;;;;;;;118.13;43.92;;;;;;;6.55;100.00;101107.59;5124774;27;20023;-73
2021/11/21 05:12:33;;;;;;;119.25;43.53;;;;;;;6.55;100.00;101101.41;5124810;27;20038;-75
2021/11/21 05:15:00;;;;;;;123.88;46.53;;;;;;;6.53;100.00;101098.75;5104174;27;20019;-71
2021/11/21 05:17:26;;;;;;;129.65;47.03;;;;;;;6.52;100.00;101094.34;5124775;27;20470;-74
2021/11/21 05:19:51;;;;;;;128.40;46.15;;;;;;;6.51;100.00;101097.84;5120859;27;20035;-76
2021/11/21 05:22:17;;;;;;;134.60;48.42;;;;;;;6.53;100.00;101093.50;5125164;27;20020;-70
2021/11/21 05:24:42;;;;;;;138.23;45.40;;;;;;;6.52;100.00;101096.97;5122417;27;20028;-71
2021/11/21 05:27:08;;;;;;;140.77;46.45;;;;;;;6.51;100.00;101105.72;5123613;27;20383;-72
2021/11/21 05:29:33;;;;;;;149.55;48.80;;;;;;;6.52;100.00;101096.97;5105480;28;20134;-72
2021/11/21 05:31:58;;;;;;;152.40;48.67;;;;;;;6.52;100.00;101102.22;5122153;28;20035;-74
2021/11/21 05:34:23;;;;;;;154.02;49.08;;;;;;;6.51;100.00;101099.56;5124983;28;20019;-71
2021/11/21 05:36:49;;;;;;;163.07;49.15;;;;;;;6.49;100.00;101094.28;5121891;28;20019;-72
2021/11/21 05:39:16;;;;;;;168.32;50.45;;;;;;;6.49;100.00;101107.41;5124393;28;20023;-70
2021/11/21 05:41:41;;;;;;;186.20;53.90;;;;;;;6.47;100.00;101108.25;5122236;28;20027;-74
2021/11/21 05:44:07;;;;;;;200.32;51.70;;;;;;;6.47;100.00;101103.88;5123587;28;20034;-69
2021/11/21 05:46:32;;;;;;;191.70;54.92;;;;;;;6.52;100.00;101110.09;5124061;28;20019;-68
2021/11/21 05:48:57;;;;;;;189.82;48.67;;;;;;;6.53;100.00;101116.25;5122268;28;20031;-70
2021/11/21 05:51:23;;;;;;;183.75;50.22;;;;;;;6.53;100.00;101101.38;5124925;28;20023;-69
2021/11/21 05:53:48;;;;;;;169.65;46.72;;;;;;;6.53;100.00;101111.00;5121302;28;20077;-69
2021/11/21 05:56:13;;;;;;;184.20;47.20;;;;;;;6.57;100.00;101105.88;5124357;28;20031;-68
2021/11/21 05:58:39;;;;;;;191.75;49.22;;;;;;;6.57;100.00;101107.63;5122583;28;20019;-68
2021/11/21 06:01:04;;;;;;;187.90;50.10;;;;;;;6.57;100.00;101105.88;5122574;28;20051;-68
2021/11/21 06:03:29;;;;;;;195.32;49.75;;;;;;;6.55;100.00;101104.97;5123979;28;20050;-68
2021/11/21 06:05:55;;;;;;;185.95;47.22;;;;;;;6.56;100.00;101104.09;5121541;28;20027;-69
2021/11/21 06:08:20;;;;;;;208.02;49.38;;;;;;;6.57;100.00;101113.75;5124664;28;20054;-68
2021/11/21 06:10:46;;;;;;;209.48;48.10;;;;;;;6.61;100.00;101112.97;5121851;28;20110;-68
2021/11/21 06:13:11;;;;;;;202.07;48.72;;;;;;;6.61;100.00;101102.47;5123618;28;20458;-68
2021/11/21 06:15:37;;;;;;;237.35;49.00;;;;;;;6.65;100.00;101105.16;5123120;28;20019;-69
2021/11/21 06:18:03;;;;;;;152.93;41.35;;;;;;;6.65;100.00;101103.41;5122396;28;20024;-68
2021/11/21 06:20:28;;;;;;;123.20;36.35;;;;;;;6.69;100.00;101109.66;5123961;28;20022;-68
2021/11/21 06:22:53;;;;;;;131.27;37.35;;;;;;;6.69;100.00;101109.66;5121335;28;20374;-70
2021/11/21 06:25:19;;;;;;;135.20;36.72;;;;;;;6.72;100.00;101109.72;5117003;28;20027;-68
2021/11/21 06:27:44;;;;;;;128.63;36.22;;;;;;;6.71;100.00;101111.44;5123899;28;20385;-69
2021/11/21 06:30:10;;;;;;;132.82;35.60;;;;;;;6.71;100.00;101107.94;5123244;27;20095;-69
2021/11/21 06:32:35;;;;;;;114.65;33.88;;;;;;;6.71;100.00;101111.44;5126376;27;20034;-72
2021/11/21 06:35:01;;;;;;;136.93;36.42;;;;;;;6.71;100.00;101113.19;5127070;27;20110;-68
2021/11/21 06:37:27;;;;;;;114.28;32.83;;;;;;;6.74;100.00;101108.91;5125250;27;20015;-68
2021/11/21 06:39:52;;;;;;;126.30;34.55;;;;;;;6.72;100.00;101102.72;5128222;27;20492;-68
2021/11/21 06:42:17;;;;;;;114.07;32.08;;;;;;;6.72;100.00;101101.84;5106225;27;20032;-72
2021/11/21 06:44:43;;;;;;;121.15;34.88;;;;;;;6.70;100.00;101103.53;5127661;27;20488;-69
2021/11/21 06:47:09;;;;;;;121.57;34.30;;;;;;;6.71;100.00;101107.94;5125948;27;20369;-68
2021/11/21 06:49:34;;;;;;;125.28;33.95;;;;;;;6.69;100.00;101107.91;5125692;27;20036;-69
2021/11/21 06:52:00;;;;;;;132.90;34.30;;;;;;;6.66;100.00;101105.22;5127175;27;20035;-68
2021/11/21 06:54:26;;;;;;;129.95;35.95;;;;;;;6.65;100.00;101103.41;5124394;27;20032;-69
2021/11/21 06:56:51;;;;;;;142.00;37.28;;;;;;;6.63;100.00;101110.38;5127805;27;20076;-69
2021/11/21 06:59:16;;;;;;;137.27;37.28;;;;;;;6.62;100.00;101109.47;5124638;27;20016;-69
2021/11/21 07:01:42;;;;;;;146.88;36.63;;;;;;;6.60;100.00;101111.19;5126782;27;20044;-69
2021/11/21 07:04:08;;;;;;;147.02;37.22;;;;;;;6.60;100.00;101110.31;5126219;27;20031;-69
2021/11/21 07:06:42;;;;;;;143.07;38.67;;;;;;;6.60;100.00;101121.69;5125304;27;20020;-73
2021/11/21 07:09:11;;;;;;;180.65;41.22;;;;;;;6.61;100.00;101112.06;5125731;27;20035;-70
2021/11/21 07:11:38;;;;;;;152.35;41.92;;;;;;;6.61;100.00;101112.06;5125778;27;20020;-71
2021/11/21 07:14:04;;;;;;;160.43;40.42;;;;;;;6.61;100.00;101112.06;5126637;27;20023;-69
2021/11/21 07:16:30;;;;;;;180.15;42.25;;;;;;;6.63;100.00;101113.03;5124854;27;20403;-69
2021/11/21 07:18:55;;;;;;;172.40;43.08;;;;;;;6.62;100.00;101119.13;5127413;27;20106;-71
2021/11/21 07:21:21;;;;;;;169.80;43.15;;;;;;;6.62;100.00;101120.00;5124237;27;20073;-70
2021/11/21 07:23:46;;;;;;;173.32;43.80;;;;;;;6.63;100.00;101124.41;5127134;27;20087;-76
2021/11/21 07:26:12;;;;;;;184.35;43.30;;;;;;;6.63;100.00;101128.78;5124938;27;20480;-72
2021/11/21 07:28:38;;;;;;;184.10;46.70;;;;;;;6.63;100.00;101126.16;5125945;27;20127;-74
2021/11/21 07:31:04;;;;;;;192.45;45.00;;;;;;;6.62;100.00;101130.50;5125921;27;20432;-69
2021/11/21 07:33:29;;;;;;;183.48;48.85;;;;;;;6.63;100.00;101132.28;5124691;27;20035;-71
2021/11/21 07:35:55;;;;;;;191.82;49.08;;;;;;;6.62;100.00;101132.25;5127001;27;20019;-77
2021/11/21 07:38:21;;;;;;;203.18;48.10;;;;;;;6.60;100.00;101133.97;5123819;27;20466;-71
2021/11/21 07:40:47;;;;;;;210.48;48.22;;;;;;;6.60;100.00;101132.22;5126916;27;20050;-79
2021/11/21 07:43:13;;;;;;;195.40;46.17;;;;;;;6.60;100.00;101132.22;5123249;27;20480;-69
2021/11/21 07:45:38;;;;;;;205.52;46.63;;;;;;;6.61;100.00;101138.34;5125571;27;20016;-70
2021/11/21 07:48:04;;;;;;;216.45;48.40;;;;;;;6.60;100.00;101137.47;5125725;27;20461;-70
2021/11/21 07:50:30;;;;;;;263.38;49.00;;;;;;;6.61;100.00;101140.97;5124335;27;20091;-70
2021/11/21 07:52:55;;;;;;;289.95;49.63;;;;;;;6.61;100.00;101140.97;5132374;27;20024;-68
2021/11/21 07:55:21;;;;;;;235.25;49.70;;;;;;;6.62;100.00;101143.63;5127943;27;20124;-69
2021/11/21 07:57:46;;;;;;;234.32;48.60;;;;;;;6.60;100.00;101149.72;5132096;27;20099;-69
2021/11/21 08:00:12;;;;;;;243.23;48.45;;;;;;;6.58;100.00;101135.63;5129613;27;20120;-69
2021/11/21 08:02:38;;;;;;;249.77;49.35;;;;;;;6.59;100.00;101140.06;5130412;27;20027;-69
2021/11/21 08:05:05;;;;;;;219.30;49.45;;;;;;;6.59;100.00;101146.19;5131485;27;20020;-72
2021/11/21 08:07:31;;;;;;;240.68;50.35;;;;;;;6.58;100.00;101144.44;5131723;27;20022;-70
2021/11/21 08:09:56;;;;;;;217.00;49.28;;;;;;;6.60;100.00;101147.97;5134534;27;20067;-70
2021/11/21 08:12:22;;;;;;;218.00;47.60;;;;;;;6.60;100.00;101150.59;5123830;27;20035;-71
2021/11/21 08:14:47;;;;;;;221.80;49.13;;;;;;;6.65;100.00;101149.84;5126873;27;20019;-68
2021/11/21 08:17:13;;;;;;;210.02;46.78;;;;;;;6.66;100.00;101151.63;5124474;27;20027;-71
2021/11/21 08:19:38;;;;;;;197.68;45.95;;;;;;;6.68;100.00;101160.41;5125360;27;20106;-73
2021/11/21 08:22:04;;;;;;;222.10;48.50;;;;;;;6.74;100.00;101160.56;5138461;27;20019;-73
2021/11/21 08:24:29;;;;;;;190.63;46.97;;;;;;;6.77;100.00;101160.63;5123400;27;20027;-72
2021/11/21 08:26:55;;;;;;;218.07;49.22;;;;;;;6.77;100.00;101156.28;5126394;27;20019;-69
2021/11/21 08:29:20;;;;;;;185.52;46.65;;;;;;;6.82;100.00;101158.16;5122795;27;20502;-68
2021/11/21 08:31:47;;;;;;;190.38;47.40;;;;;;;6.86;100.00;101162.59;5125246;27;20068;-70
2021/11/21 08:34:12;;;;;;;177.40;43.15;;;;;;;6.89;100.00;101163.59;5123791;27;20027;-69
2021/11/21 08:36:38;;;;;;;138.52;38.70;;;;;;;6.97;100.00;101163.75;5124304;27;20023;-68
2021/11/21 08:39:03;;;;;;;145.52;38.20;;;;;;;6.97;100.00;101159.41;5124913;27;20068;-72
2021/11/21 08:41:28;;;;;;;133.30;36.35;;;;;;;7.01;100.00;101159.47;5123041;27;20420;-73
2021/11/21 08:43:56;;;;;;;112.55;33.70;;;;;;;7.03;100.00;101165.66;5125946;27;20431;-69
2021/11/21 08:46:22;;;;;;;93.05;29.45;;;;;;;7.08;100.00;101166.66;5118138;27;20031;-69
2021/11/21 08:48:47;;;;;;;94.40;30.17;;;;;;;7.12;100.00;101176.38;5125147;27;20114;-68
2021/11/21 08:51:12;;;;;;;85.53;27.63;;;;;;;7.16;100.00;101175.59;5123379;27;20306;-71
2021/11/21 08:53:38;;;;;;;78.57;26.98;;;;;;;7.19;100.00;101175.66;5123369;27;20463;-72
2021/11/21 08:56:03;;;;;;;78.28;27.13;;;;;;;7.26;100.00;101172.34;5124577;27;20027;-69
2021/11/21 08:58:29;;;;;;;73.88;25.65;;;;;;;7.32;100.00;101171.59;5122513;27;20046;-68
2021/11/21 09:00:54;;;;;;;65.15;24.05;;;;;;;7.36;100.00;101173.44;5125261;27;20508;-69
2021/11/21 09:03:19;;;;;;;65.60;23.30;;;;;;;7.46;100.00;101175.41;5122240;27;20079;-68
2021/11/21 09:05:45;;;;;;;55.50;21.90;;;;;;;7.53;100.00;101168.56;5124561;27;20072;-74
2021/11/21 09:08:11;;;;;;;54.85;21.92;;;;;;;7.62;100.00;101167.88;5123403;27;20156;-78
2021/11/21 09:10:36;;;;;;;51.50;19.80;;;;;;;7.75;100.00;101171.66;5123534;27;20024;-74
2021/11/21 09:13:02;;;;;;;51.35;19.63;;;;;;;7.82;100.00;101160.38;5124618;27;20423;-72
2021/11/21 09:15:27;;;;;;;42.17;16.52;;;;;;;7.84;100.00;101164.81;5121880;27;20462;-71
2021/11/21 09:17:54;;;;;;;40.40;15.02;;;;;;;7.92;100.00;101170.28;5125626;27;20030;-70
2021/11/21 09:20:23;;;;;;;40.00;14.52;;;;;;;7.97;100.00;101175.63;5122187;27;20023;-72
2021/11/21 09:22:49;;;;;;;37.55;12.80;;;;;;;7.96;100.00;101179.97;5124800;27;20033;-70
2021/11/21 09:25:14;;;;;;;37.65;12.63;;;;;;;8.05;100.00;101181.03;5122623;27;20369;-70
2021/11/21 09:27:40;;;;;;;31.17;11.23;;;;;;;8.06;100.00;101181.06;5123740;27;20031;-71
2021/11/21 09:30:07;;;;;;;27.88;8.60;;;;;;;8.00;100.00;101179.19;5123643;28;20030;-71
2021/11/21 09:32:34;;;;;;;26.75;8.73;;;;;;;8.02;100.00;101182.75;5123251;28;20059;-73
2021/11/21 09:35:00;;;;;;;29.45;7.90;;;;;;;7.97;100.00;101189.66;5124793;28;20106;-69
2021/11/21 09:37:25;;;;;;;26.48;6.57;;;;;;;7.93;100.00;101181.69;5121500;28;20062;-73
2021/11/21 09:39:50;;;;;;;27.63;7.10;;;;;;;7.95;100.00;101191.38;5125055;28;20474;-72
2021/11/21 09:42:16;;;;;;;29.60;7.03;;;;;;;7.99;100.00;101192.31;5122072;28;20032;-73
2021/11/21 09:44:41;;;;;;;27.15;7.22;;;;;;;8.11;100.00;101192.59;5123405;28;20030;-69
2021/11/21 09:47:07;;;;;;;25.83;7.15;;;;;;;8.15;100.00;101198.78;5123559;28;20072;-72
2021/11/21 09:49:32;;;;;;;26.65;6.70;;;;;;;8.13;100.00;101190.88;5122123;28;20066;-71
2021/11/21 09:51:58;;;;;;;24.55;6.75;;;;;;;8.16;100.00;101190.91;5124913;28;20034;-77
2021/11/21 09:54:27;;;;;;;26.95;6.85;;;;;;;8.14;100.00;101191.75;5121722;28;20352;-73
2021/11/21 09:56:53;;;;;;;23.67;6.38;;;;;;;8.09;100.00;101193.41;5117440;28;20028;-71
2021/11/21 09:59:59;;;;;;;27.85;6.45;;;;;;;8.02;100.00;101209.09;5124376;28;20026;-71
2021/11/21 10:02:31;;;;;;;24.15;5.60;;;;;;;7.98;100.00;101195.81;5117509;28;20390;-69
2021/11/21 10:05:30;;;;;;;26.10;5.40;;;;;;;7.98;100.00;101206.34;5118234;27;20471;-70
2021/11/21 10:08:12;;;;;;;23.90;5.00;;;;;;;7.98;100.00;101195.81;5121986;27;20024;-74
2021/11/21 10:10:43;;;;;;;24.38;5.10;;;;;;;7.93;100.00;101197.47;5124869;27;20024;-73
2021/11/21 10:13:29;;;;;;;23.08;5.20;;;;;;;7.96;100.00;101203.69;5126858;27;20066;-72
2021/11/21 10:15:56;;;;;;;23.38;5.00;;;;;;;7.96;100.00;101201.03;5120753;27;20024;-67
2021/11/21 10:18:22;;;;;;;24.67;5.13;;;;;;;7.90;100.00;101193.03;5119674;27;20470;-68
2021/11/21 10:20:48;;;;;;;26.23;5.03;;;;;;;7.93;100.00;101187.81;5119580;27;20028;-65
2021/11/21 10:23:13;;;;;;;22.92;4.93;;;;;;;7.94;100.00;101189.59;5118104;27;20077;-68
2021/11/21 10:25:57;;;;;;;25.60;4.68;;;;;;;7.97;100.00;101188.78;5115722;27;20027;-67
2021/11/21 10:28:29;;;;;;;28.02;4.85;;;;;;;7.94;100.00;101194.88;5118483;27;20027;-66
2021/11/21 10:31:15;;;;;;;27.20;4.93;;;;;;;8.00;100.00;101184.47;5118401;27;20505;-67
2021/11/21 10:33:55;;;;;;;23.10;4.50;;;;;;;7.97;100.00;101194.94;5116748;27;20281;-68
2021/11/21 10:36:32;;;;;;;26.80;4.90;;;;;;;7.95;100.00;101196.66;5115914;27;20386;-67
2021/11/21 10:39:06;;;;;;;25.38;4.60;;;;;;;7.95;100.00;101193.13;5118772;27;20062;-67
2021/11/21 10:41:34;;;;;;;25.70;5.00;;;;;;;7.95;100.00;101201.00;5117680;27;20032;-68
2021/11/21 10:44:09;;;;;;;20.00;4.30;;;;;;;7.94;100.00;101194.00;5118411;27;20019;-67
2021/11/21 10:46:36;;;;;;;26.70;4.78;;;;;;;7.97;100.00;101197.56;5119432;27;20110;-66
2021/11/21 10:49:36;;;;;;;24.13;4.45;;;;;;;8.01;100.00;101196.78;5120169;27;20027;-67
2021/11/21 10:52:18;;;;;;;22.00;4.45;;;;;;;8.00;100.00;101192.34;5118743;27;20028;-67
2021/11/21 10:54:57;;;;;;;22.47;4.10;;;;;;;7.98;100.00;101196.72;5113930;27;20028;-67
2021/11/21 10:57:34;;;;;;;23.98;4.40;;;;;;;7.99;100.00;101192.31;5118426;27;20268;-68
2021/11/21 11:00:06;;;;;;;23.48;4.15;;;;;;;8.00;100.00;101200.25;5116951;27;20071;-69
2021/11/21 11:02:38;;;;;;;24.52;4.32;;;;;;;7.99;100.00;101198.50;5122286;27;20094;-69
2021/11/21 11:05:12;;;;;;;24.40;4.35;;;;;;;8.09;100.00;101198.69;5117066;27;20031;-68